Airfield :
LOGIN :

Register | Disclaimer

   EN    FR    IT 

 










Legend :    VFR   Marginal VFR   IFR   Intensive IFR   Very Intensive IFR
Visi :
Ceiling :
>= 8 km
>= 3000ft
5 to 8 km
1000 to 3000 ft
1500m to 5 km
500 to 1000 ft
800 to 1500m
200 to 500 ft
< 800m
< 200 ft
Symbols :   Thunderstorms  Fog  Heavy snow  Heavy precipitations  Wind > 20 kt
SIGMETs :     Misc.  Thunderstorms  Icing  Turbulence  Mountain Waves  Volcanic Ashes






- Airport Elevation : 13 ft
- IATA code : CEQ


LFMD - Cannes Mandelieu

CURRENT METAR :
  • 200330Z AUTO 00000KT CAVOK 10/08 Q1007 TEMPO 10010KT

EXPIRED METARs :
  • 200300Z AUTO 00000KT CAVOK 11/08 Q1008 TEMPO 10010KT
  • 200230Z AUTO VRB02KT CAVOK 12/07 Q1007 NOSIG
  • 200200Z AUTO VRB03KT CAVOK 15/03 Q1007
  • 200130Z AUTO 33009G21KT 260V040 CAVOK 17/00 Q1007
  • 200100Z AUTO 30010G20KT 260V350 CAVOK 17/01 Q1006
  • 200030Z AUTO 24013KT CAVOK 14/02 Q1007
  • 200000Z AUTO 26015KT CAVOK 15/01 Q1007
  • 192330Z AUTO 26018G29KT CAVOK 15/01 Q1008
  • 192300Z AUTO 28015G26KT 230V310 CAVOK 16/01 Q1008

TAF TAF LFMD
Valid from the 20 at 03:00 until the 21 at 03:00 UTC


200200Z 2003/2103 34006KT CAVOK
PROB30
TEMPO 2003/2005 10010KT
BECMG 2006/2008 15010KT
PROB40
TEMPO 2012/2017 SHRA FEW050TCU
PROB30
TEMPO 2012/2017 VRB15G25KT 4000 TSRA SCT050CB
TEMPO 2017/2020 27010KT
BECMG 2020/2022 36005KT
ATIS : +33 4 92 19 94 92



MET'MAP, your aeronautical weather chart ! - Copyright ORBIFLY December 2007 - Disclaimer

ORBIFLY MET'MAP TEAM :

Programming & Development : Alexandra Zaïnal
Original concept : Baudouin d'Aumeries
Technical & hardware support : Manuel Goepfert
Assistance : Marc-Olivier Méhu




SOURCES & CREDITS :

   NOAA